Terminal Aerodrome Forecast
Issued by NWS

Home | Current Version | Previous Version | Text Only | Print | Product List | Glossary On
Versions: 1 2 3 4 5 6 7 8 9 10 11 12 13 14 15 16 17 18
981
FTUS41 KPBZ 041739
TAFBVI
TAF
KBVI 041739Z 0418/0518 16005KT P6SM VCSH BKN040
     FM050200 VRB03KT 3SM -SHRA OVC020
     FM050400 VRB03KT 3SM -SHRA BR OVC015=

USA.gov is the U.S. government's official web portal to all federal, state and local government web resources and services.